Detalii statie PROACUA CEFA [00001987]

Toti senzorii

Date Temperatura solului [C]Precipitatii [mm]Voltaj baterie [mV]Leaf Wetness [Min]HC Air temperature [C]HC Relative humidity [%]Punctul de roua [C]
medieminmaxsumaultimatimpmedieminmaxmediemediemin
2019-04-19 19:00:00 0 6132 17.32 15.67 18.76 0 0 0
2019-04-19 20:00:00 0 6142 12.84 11.37 15.23 0 0 0
2019-04-19 21:00:00 0 6142 10.33 8.89 12.18 0 0 0
2019-04-19 22:00:00 0 6132 7.47 6.93 8.58 0 0 0
2019-04-19 23:00:00 0 6132 6.07 5.11 6.9 0 0 0
2019-04-20 00:00:00 0 6132 5.37 4.8 5.85 0 0 0
2019-04-20 01:00:00 0 6122 4.81 3.88 5.49 0 0 0
2019-04-20 02:00:00 0 6122 3.82 3.3 4.44 0 0 0
2019-04-20 03:00:00 0 6122 3.37 3.05 3.76 0 0 0
2019-04-20 04:00:00 0 6132 2.92 2.26 3.38 0 0 0
2019-04-20 05:00:00 0 6122 1.81 1.49 2.28 0 0 0
2019-04-20 06:00:00 0 6122 1.74 1.41 1.99 0 0 0
2019-04-20 07:00:00 0 6230 2.83 1.49 6 0 0 0
2019-04-20 08:00:00 0 6258 8.86 6.73 10.9 0 0 0
2019-04-20 09:00:00 0 6240 12.6 11.14 14.16 0 0 0
2019-04-20 10:00:00 0 6220 14.64 13.87 15.82 0 0 0
2019-04-20 11:00:00 0 6190 16.48 15.5 17.45 0 0 0
2019-04-20 12:00:00 0 6170 17.7 16.71 18.39 0 0 0
2019-04-20 13:00:00 0 6162 18.49 17.84 19.27 0 0 0
2019-04-20 14:00:00 0 6152 19.18 18.53 19.62 0 0 0
2019-04-20 15:00:00 0 6152 19.46 19.13 20.02 0 0 0
2019-04-20 16:00:00 0 6142 19.77 19.16 20.32 0 0 0
2019-04-20 17:00:00 0 6142 19.82 19.6 20.32 0 0 0
2019-04-20 18:00:00 0 6142 19.41 18.8 19.9 0 0 0
2019-04-20 19:00:00 0 6152 17.39 15.09 18.78 0 0 0
2019-04-20 20:00:00 0 6152 13.42 11.77 14.76 0 0 0
2019-04-20 21:00:00 0 6142 12.2 11.14 13.13 0 0 0
2019-04-20 22:00:00 0 6152 10.3 9.67 11.07 0 0 0
2019-04-20 23:00:00 0 6142 8.61 7.54 9.93 0 0 0
2019-04-21 00:00:00 0 6142 7.25 6.7 7.76 0 0 0
2019-04-21 01:00:00 0 6142 6.12 5.82 6.58 0 0 0
2019-04-21 02:00:00 0 6142 6.65 6.36 6.96 0 0 0
2019-04-21 03:00:00 0 6142 6.59 6.36 6.85 0 0 0
2019-04-21 04:00:00 0 6142 7.42 7.04 7.67 0 0 0
2019-04-21 05:00:00 0 6132 7.37 7.18 7.62 0 0 0
2019-04-21 06:00:00 0 6132 7.79 7.31 8.45 0 0 0
2019-04-21 07:00:00 0 6152 8.83 8.33 9.29 0 0 0
2019-04-21 08:00:00 0 6210 10.73 9.17 11.63 0 0 0
2019-04-21 09:00:00 0 6250 12.86 12.02 13.78 0 0 0
2019-04-21 10:00:00 0 6240 14.47 13.81 15.15 0 0 0
2019-04-21 11:00:00 0 6220 16.37 15.1 17.63 0 0 0
2019-04-21 12:00:00 0 6190 18.41 17.39 19.08 0 0 0
2019-04-21 13:00:00 0 6170 19.62 19.08 20.43 0 0 0
2019-04-21 14:00:00 0 6162 20.92 20.39 21.59 0 0 0
2019-04-21 15:00:00 0 6152 21.31 20.74 22.01 0 0 0
2019-04-21 16:00:00 0 6152 21.62 21.27 22.07 0 0 0
2019-04-21 17:00:00 0 6152 21.34 20.99 21.65 0 0 0
2019-04-21 18:00:00 0 6152 20.75 19.77 21.42 0 0 0